Search METAR Data

METAR Data for OERK:

OERK 241100Z 30015KT CAVOK 33/M08 Q1010 NOSIG